createdAt,value
2017-06-06T00:00:01.675Z,0
2017-06-06T00:01:23.200Z,0
2017-06-06T00:02:45.138Z,0
2017-06-06T00:04:06.930Z,0
2017-06-06T00:05:28.802Z,0
2017-06-06T00:06:50.640Z,0
2017-06-06T00:08:13.158Z,0
2017-06-06T00:09:34.596Z,0
2017-06-06T00:10:56.741Z,0
2017-06-06T00:12:18.908Z,0
2017-06-06T00:13:40.843Z,0
2017-06-06T00:15:02.658Z,0
2017-06-06T00:16:24.542Z,0
2017-06-06T00:17:46.404Z,0
2017-06-06T00:19:08.230Z,0
2017-06-06T00:20:30.763Z,0
2017-06-06T00:21:53.063Z,0
2017-06-06T00:23:14.934Z,0
2017-06-06T00:24:37.084Z,0
2017-06-06T00:25:58.893Z,0
2017-06-06T00:27:20.103Z,0
2017-06-06T00:28:42.255Z,0
2017-06-06T00:30:03.455Z,0
2017-06-06T00:31:25.586Z,0
2017-06-06T00:32:47.754Z,0
2017-06-06T00:34:09.703Z,0
2017-06-06T00:35:31.858Z,0
2017-06-06T00:36:54.002Z,0
2017-06-06T00:38:15.526Z,0
2017-06-06T00:39:38.013Z,0
2017-06-06T00:40:59.842Z,0
2017-06-06T00:42:22.256Z,0
2017-06-06T00:43:44.545Z,0
2017-06-06T00:45:07.062Z,0
2017-06-06T00:46:29.214Z,0
2017-06-06T00:47:52.022Z,0
2017-06-06T00:49:14.576Z,0
2017-06-06T00:50:37.048Z,0
2017-06-06T00:51:59.203Z,0
2017-06-06T00:53:20.985Z,0
2017-06-06T00:54:43.144Z,0
2017-06-06T00:56:05.045Z,0
2017-06-06T00:57:26.908Z,0
2017-06-06T00:58:49.125Z,0
2017-06-06T01:00:10.944Z,0
2017-06-06T01:01:33.561Z,0
2017-06-06T01:02:55.379Z,0
2017-06-06T01:04:17.895Z,0
2017-06-06T01:05:39.405Z,0
2017-06-06T01:07:01.884Z,0
2017-06-06T01:08:24.037Z,0
2017-06-06T01:09:46.474Z,0
2017-06-06T01:11:08.933Z,0
2017-06-06T01:12:30.780Z,0
2017-06-06T01:13:52.912Z,0
2017-06-06T01:15:15.074Z,0
2017-06-06T01:16:37.551Z,0
2017-06-06T01:18:00.193Z,0
2017-06-06T01:19:22.096Z,0
2017-06-06T01:20:44.625Z,0
2017-06-06T01:22:06.503Z,0
2017-06-06T01:23:27.833Z,0
2017-06-06T01:24:49.989Z,0
2017-06-06T01:26:12.189Z,0
2017-06-06T01:27:34.652Z,0
2017-06-06T01:28:56.823Z,0
2017-06-06T01:30:19.268Z,0
2017-06-06T01:31:41.784Z,0
2017-06-06T01:33:03.613Z,0
2017-06-06T01:34:25.133Z,0
2017-06-06T01:35:47.595Z,0
2017-06-06T01:37:09.734Z,0
2017-06-06T01:38:32.194Z,0
2017-06-06T01:39:54.025Z,0
2017-06-06T01:41:15.994Z,0
2017-06-06T01:42:38.431Z,0
2017-06-06T01:44:00.580Z,0
2017-06-06T01:45:22.792Z,0
2017-06-06T01:46:44.085Z,0
2017-06-06T01:48:06.243Z,0
2017-06-06T01:49:28.374Z,0
2017-06-06T01:50:50.953Z,0
2017-06-06T01:52:13.125Z,0
2017-06-06T01:53:36.023Z,0
2017-06-06T01:54:58.194Z,0
2017-06-06T01:56:20.074Z,0
2017-06-06T01:57:42.523Z,0
2017-06-06T01:59:05.351Z,4
2017-06-06T02:00:27.203Z,4
2017-06-06T02:01:49.766Z,0
2017-06-06T02:03:11.943Z,0
2017-06-06T02:04:34.774Z,0
2017-06-06T02:05:56.914Z,4
2017-06-06T02:07:18.784Z,4
2017-06-06T02:08:40.976Z,0
2017-06-06T02:10:03.794Z,4
2017-06-06T02:11:26.094Z,4
2017-06-06T02:12:48.544Z,4
2017-06-06T02:14:10.794Z,4
2017-06-06T02:15:33.264Z,4
2017-06-06T02:16:55.414Z,8
2017-06-06T02:18:17.372Z,8
2017-06-06T02:19:39.572Z,8
2017-06-06T02:21:02.033Z,8
2017-06-06T02:22:24.291Z,8
2017-06-06T02:23:45.823Z,12
2017-06-06T02:25:07.325Z,12
2017-06-06T02:26:30.116Z,12
2017-06-06T02:27:52.384Z,16
2017-06-06T02:29:14.523Z,20
2017-06-06T02:30:36.452Z,24
2017-06-06T02:31:58.221Z,28
2017-06-06T02:33:20.354Z,32
2017-06-06T02:34:42.503Z,40
2017-06-06T02:36:04.018Z,44
2017-06-06T02:37:26.491Z,52
2017-06-06T02:38:49.047Z,56
2017-06-06T02:40:10.928Z,68
2017-06-06T02:41:32.494Z,76
2017-06-06T02:42:54.634Z,88
2017-06-06T02:44:17.213Z,100
2017-06-06T02:45:39.042Z,112
2017-06-06T02:47:00.592Z,132
2017-06-06T02:48:22.798Z,148
2017-06-06T02:49:44.703Z,168
2017-06-06T02:51:06.851Z,192
2017-06-06T02:52:28.988Z,216
2017-06-06T02:53:50.863Z,240
2017-06-06T02:55:13.323Z,268
2017-06-06T02:56:35.285Z,296
2017-06-06T02:57:57.740Z,328
2017-06-06T02:59:19.686Z,364
2017-06-06T03:00:41.613Z,404
2017-06-06T03:02:03.127Z,444
2017-06-06T03:03:24.777Z,492
2017-06-06T03:04:46.929Z,540
2017-06-06T03:06:09.322Z,592
2017-06-06T03:07:31.142Z,652
2017-06-06T03:08:52.650Z,712
2017-06-06T03:10:14.407Z,780
2017-06-06T03:11:36.213Z,852
2017-06-06T03:12:58.033Z,932
2017-06-06T03:14:19.967Z,1000
2017-06-06T03:15:42.363Z,1080
2017-06-06T03:17:04.485Z,1156
2017-06-06T03:18:26.955Z,1240
2017-06-06T03:19:48.844Z,1320
2017-06-06T03:21:11.090Z,1412
2017-06-06T03:22:33.564Z,1508
2017-06-06T03:23:55.389Z,1604
2017-06-06T03:25:17.845Z,1704
2017-06-06T03:26:39.909Z,1804
2017-06-06T03:28:02.085Z,1916
2017-06-06T03:29:24.247Z,2036
2017-06-06T03:30:46.074Z,2156
2017-06-06T03:32:08.263Z,2260
2017-06-06T03:33:30.465Z,2376
2017-06-06T03:34:52.951Z,2496
2017-06-06T03:36:15.411Z,2608
2017-06-06T03:37:37.579Z,2708
2017-06-06T03:38:59.400Z,2804
2017-06-06T03:40:21.333Z,2916
2017-06-06T03:41:43.258Z,3060
2017-06-06T03:43:05.138Z,3212
2017-06-06T03:44:26.762Z,3312
2017-06-06T03:45:48.589Z,3408
2017-06-06T03:47:10.454Z,3516
2017-06-06T03:48:32.885Z,3612
2017-06-06T03:49:55.042Z,3724
2017-06-06T03:51:16.869Z,3820
2017-06-06T03:52:39.077Z,3956
2017-06-06T03:54:01.221Z,4072
2017-06-06T03:55:23.033Z,4204
2017-06-06T03:56:44.885Z,4268
2017-06-06T03:58:07.063Z,4368
2017-06-06T03:59:29.608Z,4528
2017-06-06T04:00:52.061Z,4728
2017-06-06T04:02:14.644Z,4936
2017-06-06T04:03:36.285Z,5120
2017-06-06T04:04:58.613Z,5208
2017-06-06T04:06:20.306Z,5256
2017-06-06T04:07:42.594Z,5376
2017-06-06T04:09:05.060Z,5388
2017-06-06T04:10:27.322Z,5484
2017-06-06T04:11:49.771Z,5616
2017-06-06T04:13:11.322Z,5820
2017-06-06T04:14:33.453Z,6104
2017-06-06T04:15:55.979Z,6456
2017-06-06T04:17:17.506Z,6976
2017-06-06T04:18:39.686Z,7472
2017-06-06T04:20:01.526Z,7716
2017-06-06T04:21:23.794Z,7900
2017-06-06T04:22:46.040Z,8076
2017-06-06T04:24:07.546Z,8208
2017-06-06T04:25:29.485Z,8412
2017-06-06T04:26:52.090Z,8676
2017-06-06T04:28:13.287Z,8880
2017-06-06T04:29:35.113Z,8804
2017-06-06T04:30:57.271Z,8764
2017-06-06T04:32:20.076Z,8872
2017-06-06T04:33:42.297Z,9020
2017-06-06T04:35:03.849Z,9080
2017-06-06T04:36:25.483Z,9052
2017-06-06T04:37:46.954Z,8884
2017-06-06T04:39:08.463Z,8968
2017-06-06T04:40:29.963Z,9060
2017-06-06T04:41:51.794Z,9132
2017-06-06T04:43:14.714Z,8672
2017-06-06T04:44:36.868Z,8808
2017-06-06T04:45:59.054Z,9368
2017-06-06T04:47:21.191Z,10008
2017-06-06T04:48:43.022Z,10676
2017-06-06T04:50:04.840Z,12432
2017-06-06T04:51:26.374Z,16704
2017-06-06T04:52:48.550Z,18912
2017-06-06T04:54:10.423Z,20832
2017-06-06T04:55:32.242Z,21152
2017-06-06T04:56:54.061Z,16640
2017-06-06T04:58:15.883Z,19488
2017-06-06T04:59:38.412Z,21344
2017-06-06T05:01:00.253Z,21984
2017-06-06T05:02:22.404Z,20800
2017-06-06T05:03:44.234Z,23008
2017-06-06T05:05:06.322Z,21632
2017-06-06T05:06:28.164Z,19936
2017-06-06T05:07:50.323Z,20192
2017-06-06T05:09:11.852Z,21120
2017-06-06T05:10:34.032Z,24576
2017-06-06T05:11:55.860Z,20032
2017-06-06T05:13:18.012Z,19680
2017-06-06T05:14:39.579Z,20128
2017-06-06T05:16:01.762Z,21600
2017-06-06T05:17:23.905Z,26912
2017-06-06T05:18:45.883Z,29216
2017-06-06T05:20:07.776Z,29120
2017-06-06T05:21:30.379Z,29600
2017-06-06T05:22:51.909Z,30624
2017-06-06T05:24:14.413Z,27712
2017-06-06T05:25:37.114Z,30048
2017-06-06T05:26:59.944Z,36704
2017-06-06T05:28:21.803Z,37472
2017-06-06T05:29:43.962Z,32288
2017-06-06T05:31:05.802Z,33728
2017-06-06T05:32:28.311Z,34592
2017-06-06T05:33:50.383Z,36864
2017-06-06T05:35:11.922Z,28992
2017-06-06T05:36:33.454Z,34560
2017-06-06T05:37:56.023Z,33696
2017-06-06T05:39:17.853Z,34784
2017-06-06T05:40:39.397Z,35008
2017-06-06T05:42:01.544Z,34944
2017-06-06T05:43:24.127Z,36672
2017-06-06T05:44:45.953Z,37184
2017-06-06T05:46:08.374Z,36128
2017-06-06T05:47:30.542Z,39488
2017-06-06T05:48:52.320Z,39008
2017-06-06T05:50:14.419Z,36064
2017-06-06T05:51:36.892Z,37376
2017-06-06T05:52:59.109Z,41120
2017-06-06T05:54:20.996Z,37536
2017-06-06T05:55:42.837Z,27936
2017-06-06T05:57:05.153Z,42176
2017-06-06T05:58:27.643Z,33856
2017-06-06T05:59:50.482Z,27008
2017-06-06T06:01:12.313Z,39008
2017-06-06T06:02:34.195Z,19616
2017-06-06T06:03:56.798Z,17792
2017-06-06T06:05:19.251Z,14396
2017-06-06T06:06:41.092Z,13604
2017-06-06T06:08:03.306Z,13328
2017-06-06T06:09:25.629Z,12520
2017-06-06T06:10:48.152Z,11556
2017-06-06T06:12:10.338Z,11540
2017-06-06T06:13:32.496Z,12388
2017-06-06T06:14:54.663Z,16256
2017-06-06T06:16:17.444Z,25760
2017-06-06T06:17:39.300Z,31232
2017-06-06T06:19:01.666Z,27040
2017-06-06T06:20:24.155Z,32352
2017-06-06T06:21:46.810Z,31328
2017-06-06T06:23:08.991Z,31776
2017-06-06T06:24:31.214Z,38432
2017-06-06T06:25:53.058Z,41824
2017-06-06T06:27:15.562Z,37856
2017-06-06T06:28:37.094Z,38688
2017-06-06T06:29:59.359Z,29984
2017-06-06T06:31:21.660Z,32032
2017-06-06T06:32:43.580Z,43008
2017-06-06T06:34:06.052Z,41216
2017-06-06T06:35:27.884Z,50272
2017-06-06T06:36:49.870Z,53120
2017-06-06T06:38:12.711Z,47360
2017-06-06T06:39:34.870Z,40256
2017-06-06T06:40:56.452Z,39008
2017-06-06T06:42:18.302Z,45536
2017-06-06T06:43:40.782Z,49408
2017-06-06T06:45:02.741Z,47744
2017-06-06T06:46:24.591Z,48288
2017-06-06T06:47:46.260Z,52192
2017-06-06T06:49:08.527Z,59392
2017-06-06T06:50:30.872Z,54368
2017-06-06T06:51:53.173Z,48992
2017-06-06T06:53:15.003Z,32256
2017-06-06T06:54:37.622Z,41344
2017-06-06T06:55:59.847Z,49440
2017-06-06T06:57:22.552Z,52960
2017-06-06T06:58:44.722Z,45920
2017-06-06T07:00:07.181Z,46912
2017-06-06T07:01:29.337Z,43776
2017-06-06T07:02:51.650Z,52256
2017-06-06T07:04:14.126Z,52544
2017-06-06T07:05:36.643Z,53344
2017-06-06T07:06:59.134Z,56128
2017-06-06T07:08:21.443Z,49888
2017-06-06T07:09:43.631Z,52416
2017-06-06T07:11:06.430Z,60320
2017-06-06T07:12:28.647Z,66976
2017-06-06T07:13:51.173Z,67552
2017-06-06T07:15:13.331Z,62720
2017-06-06T07:16:35.200Z,63904
2017-06-06T07:17:57.163Z,57184
2017-06-06T07:19:19.321Z,53280
2017-06-06T07:20:41.601Z,52608
2017-06-06T07:22:03.781Z,47200
2017-06-06T07:23:25.634Z,41312
2017-06-06T07:24:47.173Z,37120
2017-06-06T07:26:09.701Z,34560
2017-06-06T07:27:31.529Z,31776
2017-06-06T07:28:53.689Z,31424
2017-06-06T07:30:15.223Z,30112
2017-06-06T07:31:37.428Z,28832
2017-06-06T07:33:00.291Z,27360
2017-06-06T07:34:22.991Z,27616
2017-06-06T07:35:45.272Z,27936
2017-06-06T07:37:07.431Z,28160
2017-06-06T07:38:29.424Z,27712
2017-06-06T07:39:50.946Z,27744
2017-06-06T07:41:13.452Z,27456
2017-06-06T07:42:35.680Z,27456
2017-06-06T07:43:58.149Z,27744
2017-06-06T07:45:20.850Z,27424
2017-06-06T07:46:43.020Z,26944
2017-06-06T07:48:04.573Z,26272
2017-06-06T07:49:26.852Z,26368
2017-06-06T07:50:49.032Z,27168
2017-06-06T07:52:11.374Z,29824
2017-06-06T07:53:33.909Z,28704
2017-06-06T07:54:56.530Z,26368
2017-06-06T07:56:18.699Z,26496
2017-06-06T07:57:40.551Z,26496
2017-06-06T07:59:02.711Z,25344
2017-06-06T08:00:25.553Z,25024
2017-06-06T08:01:47.743Z,22912
2017-06-06T08:03:09.917Z,21920
2017-06-06T08:04:32.102Z,22176
2017-06-06T08:05:54.570Z,21472
2017-06-06T08:07:16.540Z,21568
2017-06-06T08:08:38.707Z,22080
2017-06-06T08:10:01.187Z,19168
2017-06-06T08:11:23.670Z,16032
2017-06-06T08:12:45.207Z,15644
2017-06-06T08:14:07.376Z,15188
2017-06-06T08:15:29.539Z,15768
2017-06-06T08:16:52.010Z,16364
2017-06-06T08:18:13.868Z,17184
2017-06-06T08:19:35.700Z,18240
2017-06-06T08:20:57.541Z,18976
2017-06-06T08:22:19.714Z,19680
2017-06-06T08:23:41.707Z,20352
2017-06-06T08:25:04.190Z,21504
2017-06-06T08:26:26.370Z,23040
2017-06-06T08:27:49.246Z,24096
2017-06-06T08:29:11.432Z,23360
2017-06-06T08:30:33.326Z,21728
2017-06-06T08:31:55.630Z,20352
2017-06-06T08:33:17.785Z,21056
2017-06-06T08:34:39.962Z,19680
2017-06-06T08:36:02.142Z,18752
2017-06-06T08:37:24.318Z,18976
2017-06-06T08:38:46.780Z,18592
2017-06-06T08:40:08.678Z,17472
2017-06-06T08:41:31.310Z,16576
2017-06-06T08:42:53.160Z,16348
2017-06-06T08:44:15.640Z,16132
2017-06-06T08:45:38.134Z,16000
2017-06-06T08:46:59.989Z,16156
2017-06-06T08:48:22.160Z,15752
2017-06-06T08:49:44.262Z,15828
2017-06-06T08:51:06.449Z,15160
2017-06-06T08:52:28.782Z,14964
2017-06-06T08:53:51.049Z,17408
2017-06-06T08:55:13.331Z,17888
2017-06-06T08:56:35.481Z,16856
2017-06-06T08:57:57.670Z,16544
2017-06-06T08:59:19.838Z,17344
2017-06-06T09:00:42.252Z,17152
2017-06-06T09:02:04.793Z,19488
2017-06-06T09:03:26.660Z,21792
2017-06-06T09:04:49.145Z,20416
2017-06-06T09:06:11.610Z,20000
2017-06-06T09:07:33.986Z,20224
2017-06-06T09:08:56.163Z,19584
2017-06-06T09:10:18.436Z,19520
2017-06-06T09:11:40.525Z,19616
2017-06-06T09:13:03.148Z,20192
2017-06-06T09:14:25.397Z,20960
2017-06-06T09:15:47.581Z,21760
2017-06-06T09:17:09.665Z,22624
2017-06-06T09:18:31.847Z,23200
2017-06-06T09:19:54.158Z,23488
2017-06-06T09:21:16.331Z,23264
2017-06-06T09:22:38.439Z,23456
2017-06-06T09:24:00.954Z,23488
2017-06-06T09:25:24.917Z,23424
2017-06-06T09:26:47.800Z,24096
2017-06-06T09:28:09.954Z,24000
2017-06-06T09:29:32.154Z,24544
2017-06-06T09:30:54.647Z,23808
2017-06-06T09:32:17.266Z,24320
2017-06-06T09:33:39.707Z,24192
2017-06-06T09:35:01.902Z,24416
2017-06-06T09:36:23.762Z,25184
2017-06-06T09:37:46.330Z,25472
2017-06-06T09:39:08.263Z,25920
2017-06-06T09:40:30.210Z,26048
2017-06-06T09:41:52.478Z,26304
2017-06-06T09:43:14.348Z,26752
2017-06-06T09:44:36.903Z,26944
2017-06-06T09:45:59.086Z,26912
2017-06-06T09:47:20.939Z,26496
2017-06-06T09:48:42.561Z,26400
2017-06-06T09:50:05.259Z,25792
2017-06-06T09:51:27.772Z,24800
2017-06-06T09:52:49.939Z,23872
2017-06-06T09:54:12.587Z,23328
2017-06-06T09:55:34.702Z,23392
2017-06-06T09:56:57.291Z,23552
2017-06-06T09:58:19.201Z,23776
2017-06-06T09:59:41.352Z,23968
2017-06-06T10:01:03.955Z,23968
2017-06-06T10:02:26.428Z,24192
2017-06-06T10:03:48.925Z,24384
2017-06-06T10:05:11.089Z,24704
2017-06-06T10:06:33.805Z,25184
2017-06-06T10:07:56.302Z,25664
2017-06-06T10:09:18.770Z,26368
2017-06-06T10:10:41.270Z,26656
2017-06-06T10:12:04.001Z,26656
2017-06-06T10:13:26.475Z,26496
2017-06-06T10:14:48.321Z,25344
2017-06-06T10:16:10.811Z,24480
2017-06-06T10:17:33.008Z,23904
2017-06-06T10:18:55.291Z,23104
2017-06-06T10:20:17.139Z,22848
2017-06-06T10:21:39.293Z,24224
2017-06-06T10:23:01.759Z,26048
2017-06-06T10:24:23.629Z,27488
2017-06-06T10:25:46.139Z,27808
2017-06-06T10:27:08.014Z,27488
2017-06-06T10:28:29.790Z,26784
2017-06-06T10:29:51.389Z,26144
2017-06-06T10:31:13.237Z,25600
2017-06-06T10:32:34.853Z,25440
2017-06-06T10:33:57.726Z,26016
2017-06-06T10:35:19.879Z,25952
2017-06-06T10:36:42.069Z,25920
2017-06-06T10:38:04.671Z,24544
2017-06-06T10:39:27.166Z,22496
2017-06-06T10:40:49.672Z,21248
2017-06-06T10:42:11.510Z,24000
2017-06-06T10:43:34.001Z,24544
2017-06-06T10:44:56.480Z,22752
2017-06-06T10:46:17.711Z,21632
2017-06-06T10:47:40.203Z,21312
2017-06-06T10:49:02.399Z,20512
2017-06-06T10:50:24.603Z,19200
2017-06-06T10:51:46.931Z,22528
2017-06-06T10:53:09.425Z,19392
2017-06-06T10:54:31.790Z,17088
2017-06-06T10:55:54.731Z,19200
2017-06-06T10:57:17.835Z,24480
2017-06-06T10:58:40.310Z,26720
2017-06-06T11:00:02.477Z,26912
2017-06-06T11:01:25.431Z,26976
2017-06-06T11:02:47.970Z,26656
2017-06-06T11:04:09.193Z,26080
2017-06-06T11:05:31.669Z,25600
2017-06-06T11:06:54.081Z,25440
2017-06-06T11:08:15.979Z,25568
2017-06-06T11:09:38.152Z,25760
2017-06-06T11:11:00.007Z,25408
2017-06-06T11:12:22.835Z,24992
2017-06-06T11:13:45.381Z,24800
2017-06-06T11:15:07.869Z,25504
2017-06-06T11:16:30.369Z,25760
2017-06-06T11:17:52.842Z,26112
2017-06-06T11:19:15.012Z,25920
2017-06-06T11:20:37.206Z,25536
2017-06-06T11:21:59.408Z,25376
2017-06-06T11:23:21.550Z,25248
2017-06-06T11:24:44.139Z,25504
2017-06-06T11:26:06.301Z,25952
2017-06-06T11:27:28.579Z,26112
2017-06-06T11:28:50.711Z,25568
2017-06-06T11:30:13.319Z,24480
2017-06-06T11:31:35.479Z,23648
2017-06-06T11:32:57.327Z,23424
2017-06-06T11:34:19.905Z,24288
2017-06-06T11:35:42.107Z,25088
2017-06-06T11:37:04.640Z,25568
2017-06-06T11:38:26.811Z,25824
2017-06-06T11:39:49.450Z,24896
2017-06-06T11:41:11.820Z,22752
2017-06-06T11:42:33.752Z,20288
2017-06-06T11:43:55.302Z,19840
2017-06-06T11:45:18.107Z,16736
2017-06-06T11:46:40.089Z,14296
2017-06-06T11:48:02.558Z,13356
2017-06-06T11:49:25.079Z,11436
2017-06-06T11:50:47.081Z,9052
2017-06-06T11:52:09.719Z,6840
2017-06-06T11:53:31.752Z,7840
2017-06-06T11:54:53.615Z,9932
2017-06-06T11:56:16.125Z,11936
2017-06-06T11:57:38.320Z,13936
2017-06-06T11:59:00.493Z,15872
2017-06-06T12:00:22.684Z,15912
2017-06-06T12:01:45.484Z,13864
2017-06-06T12:03:07.971Z,16928
2017-06-06T12:04:30.138Z,19968
2017-06-06T12:05:52.627Z,20448
2017-06-06T12:07:15.180Z,19936
2017-06-06T12:08:37.391Z,19296
2017-06-06T12:09:59.667Z,20448
2017-06-06T12:11:21.850Z,22976
2017-06-06T12:12:44.367Z,25376
2017-06-06T12:14:06.854Z,25088
2017-06-06T12:15:29.071Z,24512
2017-06-06T12:16:51.234Z,24160
2017-06-06T12:18:13.478Z,24480
2017-06-06T12:19:35.318Z,24864
2017-06-06T12:20:57.824Z,23904
2017-06-06T12:22:20.304Z,22656
2017-06-06T12:23:42.506Z,20896
2017-06-06T12:25:04.977Z,21056
2017-06-06T12:26:26.866Z,21600
2017-06-06T12:27:48.723Z,21088
2017-06-06T12:29:10.854Z,20864
2017-06-06T12:30:33.041Z,20800
2017-06-06T12:31:54.867Z,20320
2017-06-06T12:33:17.360Z,20096
2017-06-06T12:34:40.093Z,20768
2017-06-06T12:36:02.312Z,21280
2017-06-06T12:37:24.810Z,21440
2017-06-06T12:38:46.674Z,21760
2017-06-06T12:40:08.781Z,22080
2017-06-06T12:41:31.027Z,22048
2017-06-06T12:42:53.191Z,21696
2017-06-06T12:44:15.679Z,21632
2017-06-06T12:45:38.283Z,21664
2017-06-06T12:47:00.911Z,22080
2017-06-06T12:48:22.860Z,22944
2017-06-06T12:49:45.468Z,23904
2017-06-06T12:51:07.873Z,25376
2017-06-06T12:52:30.392Z,26080
2017-06-06T12:53:52.570Z,25344
2017-06-06T12:55:14.449Z,23008
2017-06-06T12:56:37.002Z,21696
2017-06-06T12:57:59.163Z,20800
2017-06-06T12:59:21.654Z,19104
2017-06-06T13:00:44.154Z,18880
2017-06-06T13:02:06.302Z,18592
2017-06-06T13:03:28.494Z,18560
2017-06-06T13:04:50.810Z,18112
2017-06-06T13:06:13.060Z,17440
2017-06-06T13:07:35.531Z,16864
2017-06-06T13:08:57.545Z,15452
2017-06-06T13:10:19.761Z,14140
2017-06-06T13:11:42.270Z,10996
2017-06-06T13:13:04.779Z,10644
2017-06-06T13:14:27.025Z,10296
2017-06-06T13:15:49.528Z,13332
2017-06-06T13:17:12.021Z,13652
2017-06-06T13:18:34.304Z,9812
2017-06-06T13:19:56.179Z,4948
2017-06-06T13:21:18.673Z,2212
2017-06-06T13:22:41.172Z,1408
2017-06-06T13:24:03.673Z,1244
2017-06-06T13:25:26.143Z,1216
2017-06-06T13:26:48.421Z,1384
2017-06-06T13:28:10.650Z,1592
2017-06-06T13:29:33.180Z,1620
2017-06-06T13:30:55.429Z,1796
2017-06-06T13:32:17.902Z,2060
2017-06-06T13:33:40.090Z,2364
2017-06-06T13:35:01.921Z,3748
2017-06-06T13:36:24.105Z,6036
2017-06-06T13:37:45.983Z,7396
2017-06-06T13:39:08.165Z,8476
2017-06-06T13:40:30.781Z,9288
2017-06-06T13:41:53.292Z,9664
2017-06-06T13:43:15.888Z,9216
2017-06-06T13:44:38.500Z,7360
2017-06-06T13:46:01.339Z,7304
2017-06-06T13:47:23.619Z,8076
2017-06-06T13:48:45.129Z,7984
2017-06-06T13:50:07.299Z,7600
2017-06-06T13:51:29.889Z,7672
2017-06-06T13:52:51.841Z,8192
2017-06-06T13:54:14.332Z,9744
2017-06-06T13:55:36.945Z,11652
2017-06-06T13:56:59.039Z,13764
2017-06-06T13:58:20.905Z,14608
2017-06-06T13:59:43.079Z,17696
2017-06-06T14:01:05.032Z,20384
2017-06-06T14:02:27.582Z,22304
2017-06-06T14:03:49.740Z,23840
2017-06-06T14:05:12.213Z,25504
2017-06-06T14:06:34.755Z,28192
2017-06-06T14:07:56.922Z,20672
2017-06-06T14:09:18.782Z,15176
2017-06-06T14:10:40.943Z,13400
2017-06-06T14:12:03.402Z,12096
2017-06-06T14:13:26.195Z,10844
2017-06-06T14:14:48.102Z,10032
2017-06-06T14:16:10.412Z,11596
2017-06-06T14:17:32.738Z,11536
2017-06-06T14:18:54.890Z,10396
2017-06-06T14:20:17.082Z,8796
2017-06-06T14:21:39.269Z,6636
2017-06-06T14:23:01.834Z,5152
2017-06-06T14:24:24.278Z,4412
2017-06-06T14:25:46.783Z,4376
2017-06-06T14:27:09.271Z,4812
2017-06-06T14:28:31.814Z,5152
2017-06-06T14:29:54.351Z,6944
2017-06-06T14:31:16.626Z,7900
2017-06-06T14:32:39.116Z,8796
2017-06-06T14:34:01.029Z,9244
2017-06-06T14:35:23.625Z,9736
2017-06-06T14:36:45.579Z,12164
2017-06-06T14:38:07.429Z,12408
2017-06-06T14:39:29.685Z,16192
2017-06-06T14:40:52.505Z,17856
2017-06-06T14:42:14.582Z,15068
2017-06-06T14:43:37.091Z,11816
2017-06-06T14:44:59.448Z,10028
2017-06-06T14:46:21.649Z,9504
2017-06-06T14:47:44.131Z,14864
2017-06-06T14:49:06.488Z,12216
2017-06-06T14:50:28.661Z,12136
2017-06-06T14:51:51.164Z,15696
2017-06-06T14:53:13.824Z,15684
2017-06-06T14:54:36.026Z,13564
2017-06-06T14:55:58.504Z,13140
2017-06-06T14:57:20.677Z,15648
2017-06-06T14:58:43.012Z,19520
2017-06-06T15:00:05.226Z,19392
2017-06-06T15:01:27.792Z,19872
2017-06-06T15:02:50.263Z,19744
2017-06-06T15:04:11.892Z,19968
2017-06-06T15:05:34.393Z,17664
2017-06-06T15:06:56.905Z,12452
2017-06-06T15:08:19.403Z,9024
2017-06-06T15:09:42.442Z,7504
2017-06-06T15:11:04.993Z,6760
2017-06-06T15:12:27.298Z,6340
2017-06-06T15:13:50.212Z,6144
2017-06-06T15:15:12.506Z,6080
2017-06-06T15:16:35.006Z,6064
2017-06-06T15:17:57.190Z,6160
2017-06-06T15:19:19.854Z,6044
2017-06-06T15:20:42.057Z,6128
2017-06-06T15:22:03.905Z,5948
2017-06-06T15:23:26.104Z,5980
2017-06-06T15:24:48.585Z,5496
2017-06-06T15:26:10.852Z,5820
2017-06-06T15:27:32.725Z,8252
2017-06-06T15:28:54.904Z,7140
2017-06-06T15:30:17.740Z,6540
2017-06-06T15:31:39.902Z,5388
2017-06-06T15:33:02.545Z,5944
2017-06-06T15:34:25.039Z,5276
2017-06-06T15:35:47.427Z,5736
2017-06-06T15:37:09.755Z,6244
2017-06-06T15:38:32.254Z,7656
2017-06-06T15:39:54.787Z,8616
2017-06-06T15:41:17.002Z,9612
2017-06-06T15:42:38.866Z,9384
2017-06-06T15:44:01.177Z,9464
2017-06-06T15:45:23.352Z,8532
2017-06-06T15:46:45.972Z,7056
2017-06-06T15:48:08.786Z,6108
2017-06-06T15:49:30.334Z,5412
2017-06-06T15:50:52.855Z,5108
2017-06-06T15:52:15.285Z,5480
2017-06-06T15:53:37.159Z,5648
2017-06-06T15:54:59.459Z,8060
2017-06-06T15:56:21.692Z,11204
2017-06-06T15:57:44.713Z,10844
2017-06-06T15:59:06.271Z,9020
2017-06-06T16:00:28.461Z,9108
2017-06-06T16:01:50.360Z,8908
2017-06-06T16:03:13.186Z,9432
2017-06-06T16:04:34.889Z,9816
2017-06-06T16:05:56.740Z,10340
2017-06-06T16:07:18.597Z,10136
2017-06-06T16:08:40.699Z,9916
2017-06-06T16:10:02.815Z,8944
2017-06-06T16:11:24.858Z,9956
2017-06-06T16:12:47.217Z,10936
2017-06-06T16:14:09.793Z,9164
2017-06-06T16:15:32.280Z,8000
2017-06-06T16:16:54.486Z,7160
2017-06-06T16:18:16.030Z,6276
2017-06-06T16:19:38.753Z,5920
2017-06-06T16:21:01.364Z,6684
2017-06-06T16:22:23.357Z,10660
2017-06-06T16:23:45.377Z,11636
2017-06-06T16:25:08.016Z,10616
2017-06-06T16:26:30.501Z,9836
2017-06-06T16:27:52.683Z,9748
2017-06-06T16:29:15.177Z,9856
2017-06-06T16:30:37.086Z,9632
2017-06-06T16:31:59.706Z,7660
2017-06-06T16:33:21.880Z,8808
2017-06-06T16:34:44.494Z,7976
2017-06-06T16:36:06.976Z,7768
2017-06-06T16:37:29.165Z,8616
2017-06-06T16:38:51.006Z,9528
2017-06-06T16:40:13.504Z,9756
2017-06-06T16:41:35.416Z,9480
2017-06-06T16:42:57.924Z,8568
2017-06-06T16:44:20.193Z,7080
2017-06-06T16:45:42.537Z,6060
2017-06-06T16:47:05.325Z,5932
2017-06-06T16:48:27.172Z,5940
2017-06-06T16:49:49.647Z,6016
2017-06-06T16:51:11.532Z,6352
2017-06-06T16:52:34.299Z,6152
2017-06-06T16:53:56.786Z,6240
2017-06-06T16:55:19.305Z,6532
2017-06-06T16:56:41.805Z,7460
2017-06-06T16:58:04.286Z,8528
2017-06-06T16:59:25.831Z,9748
2017-06-06T17:00:48.106Z,10068
2017-06-06T17:02:10.275Z,9844
2017-06-06T17:03:33.126Z,9772
2017-06-06T17:04:54.751Z,9376
2017-06-06T17:06:16.600Z,9164
2017-06-06T17:07:38.784Z,8824
2017-06-06T17:09:01.244Z,8428
2017-06-06T17:10:23.474Z,8096
2017-06-06T17:11:45.998Z,7792
2017-06-06T17:13:08.523Z,7764
2017-06-06T17:14:31.334Z,8076
2017-06-06T17:15:53.904Z,8396
2017-06-06T17:17:16.404Z,8376
2017-06-06T17:18:39.021Z,8068
2017-06-06T17:20:01.698Z,7876
2017-06-06T17:21:23.925Z,7568
2017-06-06T17:22:46.160Z,7192
2017-06-06T17:24:08.333Z,7004
2017-06-06T17:25:30.485Z,6968
2017-06-06T17:26:52.964Z,6988
2017-06-06T17:28:14.843Z,7016
2017-06-06T17:29:37.009Z,7136
2017-06-06T17:30:59.787Z,6968
2017-06-06T17:32:21.976Z,6144
2017-06-06T17:33:44.464Z,5516
2017-06-06T17:35:06.372Z,4944
2017-06-06T17:36:28.846Z,5004
2017-06-06T17:37:51.376Z,5208
2017-06-06T17:39:13.627Z,4568
2017-06-06T17:40:36.110Z,4468
2017-06-06T17:41:59.043Z,5456
2017-06-06T17:43:20.897Z,6228
2017-06-06T17:44:43.183Z,6672
2017-06-06T17:46:05.023Z,6760
2017-06-06T17:47:27.166Z,6428
2017-06-06T17:48:49.412Z,6128
2017-06-06T17:50:11.948Z,5708
2017-06-06T17:51:34.504Z,5424
2017-06-06T17:52:56.924Z,5576
2017-06-06T17:54:19.524Z,5776
2017-06-06T17:55:41.393Z,5844
2017-06-06T17:57:03.973Z,5824
2017-06-06T17:58:26.419Z,5656
2017-06-06T17:59:48.714Z,5484
2017-06-06T18:01:10.906Z,5368
2017-06-06T18:02:33.396Z,5196
2017-06-06T18:03:56.135Z,4892
2017-06-06T18:05:18.652Z,4668
2017-06-06T18:06:41.135Z,4452
2017-06-06T18:08:03.311Z,4256
2017-06-06T18:09:25.496Z,4184
2017-06-06T18:10:48.033Z,4116